createdAt,value
2022-12-13T00:01:52.166Z,5.50
2022-12-13T00:04:23.209Z,5.31
2022-12-13T00:06:54.473Z,5.62
2022-12-13T00:09:24.277Z,5.57
2022-12-13T00:11:55.965Z,5.50
2022-12-13T00:14:26.149Z,5.72
2022-12-13T00:16:56.270Z,5.60
2022-12-13T00:19:26.020Z,5.44
2022-12-13T00:21:55.588Z,5.36
2022-12-13T00:24:25.174Z,5.49
2022-12-13T00:26:56.889Z,5.33
2022-12-13T00:29:26.825Z,5.32
2022-12-13T00:32:01.139Z,5.41
2022-12-13T00:34:31.154Z,5.40
2022-12-13T00:37:00.687Z,5.34
2022-12-13T00:39:30.285Z,5.39
2022-12-13T00:42:01.396Z,5.45
2022-12-13T00:44:31.465Z,5.50
2022-12-13T00:47:01.080Z,5.41
2022-12-13T00:49:30.670Z,5.43
2022-12-13T00:52:00.237Z,5.61
2022-12-13T00:54:29.704Z,5.70
2022-12-13T00:56:59.322Z,5.68
2022-12-13T00:59:30.494Z,5.71
2022-12-13T01:02:00.380Z,5.71
2022-12-13T01:04:29.948Z,5.82
2022-12-13T01:06:59.640Z,5.69
2022-12-13T01:09:31.157Z,5.71
2022-12-13T01:12:03.020Z,5.63
2022-12-13T01:14:35.772Z,5.63
2022-12-13T01:17:05.917Z,5.51
2022-12-13T01:19:35.620Z,5.52
2022-12-13T01:22:06.724Z,5.49
2022-12-13T01:24:36.201Z,5.72
2022-12-13T01:27:05.828Z,5.55
2022-12-13T01:29:36.839Z,5.80
2022-12-13T01:32:06.824Z,5.78
2022-12-13T01:34:36.385Z,5.76
2022-12-13T01:37:05.964Z,5.61
2022-12-13T01:39:38.120Z,5.79
2022-12-13T01:42:08.168Z,5.79
2022-12-13T01:45:07.860Z,5.64
2022-12-13T01:47:41.032Z,5.62
2022-12-13T01:50:13.655Z,5.71
2022-12-13T01:52:43.869Z,5.77
2022-12-13T01:55:13.609Z,5.67
2022-12-13T01:57:45.852Z,5.90
2022-12-13T02:00:16.366Z,5.89
2022-12-13T02:02:48.699Z,5.85
2022-12-13T02:05:22.540Z,5.70
2022-12-13T02:07:52.345Z,5.74
2022-12-13T02:10:22.215Z,5.83
2022-12-13T02:12:52.186Z,5.72
2022-12-13T02:15:22.812Z,5.67
2022-12-13T02:18:07.101Z,5.66
2022-12-13T02:20:48.653Z,5.63
2022-12-13T02:23:36.669Z,5.46
2022-12-13T02:26:25.260Z,5.54
2022-12-13T02:29:03.942Z,5.45
2022-12-13T02:31:41.300Z,5.40
2022-12-13T02:34:14.896Z,5.27
2022-12-13T02:36:50.044Z,5.24
2022-12-13T02:39:29.784Z,5.21
2022-12-13T02:42:01.909Z,5.27
2022-12-13T02:44:32.967Z,5.19
2022-12-13T02:47:06.790Z,5.01
2022-12-13T02:49:47.053Z,5.14
2022-12-13T02:52:22.541Z,5.17
2022-12-13T02:54:52.413Z,4.98
2022-12-13T02:57:32.225Z,5.06
2022-12-13T03:00:03.749Z,4.86
2022-12-13T03:02:39.620Z,4.79
2022-12-13T03:05:33.409Z,4.77
2022-12-13T03:08:10.924Z,4.79
2022-12-13T03:10:45.781Z,4.66
2022-12-13T03:13:36.577Z,4.71
2022-12-13T03:16:10.322Z,4.61
2022-12-13T03:18:41.910Z,4.61
2022-12-13T03:21:13.233Z,4.73
2022-12-13T03:23:43.066Z,4.47
2022-12-13T03:26:14.766Z,4.49
2022-12-13T03:28:44.528Z,4.55
2022-12-13T03:31:14.240Z,4.55
2022-12-13T03:33:45.569Z,4.40
2022-12-13T03:36:15.586Z,4.47
2022-12-13T03:38:45.115Z,4.34
2022-12-13T03:41:16.120Z,4.31
2022-12-13T03:43:46.258Z,4.42
2022-12-13T03:46:16.133Z,4.44
2022-12-13T03:48:47.043Z,4.26
2022-12-13T03:51:16.849Z,4.17
2022-12-13T03:53:46.341Z,4.27
2022-12-13T03:56:15.842Z,4.39
2022-12-13T03:58:45.371Z,4.44
2022-12-13T04:01:15.751Z,4.50
2022-12-13T04:03:46.147Z,4.25
2022-12-13T04:06:22.241Z,4.16
2022-12-13T04:08:53.580Z,4.10
2022-12-13T04:11:42.969Z,4.27
2022-12-13T04:14:22.771Z,4.11
2022-12-13T04:16:53.415Z,3.98
2022-12-13T04:19:24.107Z,3.98
2022-12-13T04:21:55.368Z,4.08
2022-12-13T04:24:31.678Z,4.00
2022-12-13T04:27:02.210Z,4.13
2022-12-13T04:29:33.900Z,4.23
2022-12-13T04:32:05.152Z,4.26
2022-12-13T04:35:01.013Z,4.29
2022-12-13T04:37:32.790Z,3.97
2022-12-13T04:40:02.268Z,3.93
2022-12-13T04:42:31.883Z,4.10
2022-12-13T04:45:01.516Z,3.99
2022-12-13T04:47:31.152Z,3.93
2022-12-13T04:50:00.625Z,3.98
2022-12-13T04:52:30.304Z,4.05
2022-12-13T04:55:01.323Z,4.05
2022-12-13T04:57:31.062Z,3.91
2022-12-13T05:00:00.661Z,4.01
2022-12-13T05:02:30.260Z,4.06
2022-12-13T05:05:00.423Z,3.96
2022-12-13T05:07:30.206Z,3.87
2022-12-13T05:10:01.187Z,3.89
2022-12-13T05:12:31.513Z,3.82
2022-12-13T05:15:01.510Z,3.88
2022-12-13T05:17:31.845Z,4.09
2022-12-13T05:20:01.437Z,3.92
2022-12-13T05:22:31.200Z,3.98
2022-12-13T05:25:02.205Z,3.98
2022-12-13T05:27:31.719Z,3.95
2022-12-13T05:30:01.532Z,3.92
2022-12-13T05:32:43.895Z,4.03
2022-12-13T05:35:23.113Z,3.89
2022-12-13T05:37:53.972Z,3.96
2022-12-13T05:40:25.590Z,3.89
2022-12-13T05:43:00.991Z,3.95
2022-12-13T05:45:32.274Z,3.91
2022-12-13T05:48:02.009Z,3.93
2022-12-13T05:50:31.826Z,3.87
2022-12-13T05:53:02.064Z,3.84
2022-12-13T05:55:32.993Z,3.89
2022-12-13T05:58:02.752Z,3.86
2022-12-13T06:00:32.384Z,3.91
2022-12-13T06:03:02.235Z,3.92
2022-12-13T06:05:32.397Z,3.84
2022-12-13T06:08:02.041Z,4.01
2022-12-13T06:10:34.949Z,3.91
2022-12-13T06:13:21.606Z,3.87
2022-12-13T06:16:01.669Z,3.82
2022-12-13T06:18:32.396Z,3.77
2022-12-13T06:21:02.889Z,3.80
2022-12-13T06:23:32.995Z,3.97
2022-12-13T06:26:05.305Z,3.95
2022-12-13T06:28:34.893Z,3.91
2022-12-13T06:31:05.572Z,4.11
2022-12-13T06:33:36.791Z,3.99
2022-12-13T06:36:06.868Z,3.87
2022-12-13T06:38:43.226Z,3.99
2022-12-13T06:41:15.632Z,3.86
2022-12-13T06:43:45.717Z,3.83
2022-12-13T06:46:15.914Z,4.00
2022-12-13T06:48:45.562Z,4.11
2022-12-13T06:51:22.933Z,4.18
2022-12-13T06:54:03.296Z,4.08
2022-12-13T06:56:34.429Z,4.03
2022-12-13T06:59:03.944Z,4.12
2022-12-13T07:01:36.770Z,4.25
2022-12-13T07:04:30.356Z,4.31
2022-12-13T07:07:01.984Z,4.18
2022-12-13T07:09:31.982Z,4.08
2022-12-13T07:12:05.074Z,4.10
2022-12-13T07:14:40.991Z,4.06
2022-12-13T07:17:11.873Z,3.93
2022-12-13T07:19:41.333Z,3.96
2022-12-13T07:22:11.318Z,4.04
2022-12-13T07:24:40.965Z,4.06
2022-12-13T07:27:11.974Z,4.23
2022-12-13T07:29:41.806Z,4.27
2022-12-13T07:32:12.182Z,4.23
2022-12-13T07:34:41.842Z,4.17
2022-12-13T07:37:30.002Z,4.38
2022-12-13T07:40:04.353Z,4.19
2022-12-13T07:42:35.747Z,4.21
2022-12-13T07:45:06.559Z,4.29
2022-12-13T07:47:36.268Z,4.22
2022-12-13T07:50:06.675Z,4.41
2022-12-13T07:52:54.483Z,4.22
2022-12-13T07:55:32.789Z,4.13
2022-12-13T07:58:06.064Z,4.04
2022-12-13T08:00:35.710Z,4.22
2022-12-13T08:03:05.547Z,4.42
2022-12-13T08:05:38.545Z,4.42
2022-12-13T08:08:10.262Z,4.28
2022-12-13T08:10:40.313Z,3.83
2022-12-13T08:13:21.956Z,4.27
2022-12-13T08:15:52.348Z,4.28
2022-12-13T08:18:21.909Z,4.29
2022-12-13T08:20:51.473Z,4.49
2022-12-13T08:23:21.096Z,4.45
2022-12-13T08:25:52.611Z,4.51
2022-12-13T08:28:23.939Z,4.52
2022-12-13T08:30:53.731Z,4.41
2022-12-13T08:33:23.734Z,4.31
2022-12-13T08:35:53.268Z,4.48
2022-12-13T08:38:23.807Z,4.34
2022-12-13T08:41:03.282Z,4.42
2022-12-13T08:43:34.197Z,4.34
2022-12-13T08:46:07.304Z,4.34
2022-12-13T08:48:37.016Z,4.38
2022-12-13T08:51:15.185Z,4.43
2022-12-13T08:54:10.539Z,4.46
2022-12-13T08:56:43.735Z,4.40
2022-12-13T08:59:16.136Z,4.42
2022-12-13T09:01:46.647Z,4.51
2022-12-13T09:04:16.431Z,4.62
2022-12-13T09:06:46.313Z,4.74
2022-12-13T09:09:16.360Z,4.59
2022-12-13T09:11:47.153Z,4.57
2022-12-13T09:14:18.489Z,4.66
2022-12-13T09:16:53.764Z,4.68
2022-12-13T09:19:26.718Z,4.60
2022-12-13T09:22:02.433Z,4.62
2022-12-13T09:24:36.433Z,4.80
2022-12-13T09:27:09.043Z,4.78
2022-12-13T09:29:40.621Z,4.90
2022-12-13T09:32:10.218Z,4.58
2022-12-13T09:34:39.938Z,4.63
2022-12-13T09:37:11.983Z,4.75
2022-12-13T09:39:41.533Z,4.73
2022-12-13T09:42:15.637Z,4.72
2022-12-13T09:45:03.122Z,4.84
2022-12-13T09:47:35.653Z,4.91
2022-12-13T09:50:07.449Z,4.70
2022-12-13T09:52:46.165Z,4.68
2022-12-13T09:55:19.393Z,4.85
2022-12-13T09:57:49.801Z,4.85
2022-12-13T10:00:22.460Z,4.73
2022-12-13T10:02:53.239Z,4.76
2022-12-13T10:05:35.750Z,4.75
2022-12-13T10:08:10.125Z,4.74
2022-12-13T10:10:39.825Z,4.80
2022-12-13T10:13:16.077Z,4.77
2022-12-13T10:15:49.923Z,4.81
2022-12-13T10:18:37.437Z,4.87
2022-12-13T10:21:10.995Z,4.87
2022-12-13T10:24:15.294Z,5.00
2022-12-13T10:26:36.610Z,4.87
2022-12-13T10:29:07.367Z,4.95
2022-12-13T10:31:43.522Z,4.98
2022-12-13T10:34:18.381Z,4.77
2022-12-13T10:36:48.044Z,4.96
2022-12-13T10:39:19.208Z,5.01
2022-12-13T10:41:48.811Z,4.82
2022-12-13T10:44:22.656Z,4.74
2022-12-13T10:47:01.245Z,4.85
2022-12-13T10:49:38.637Z,4.90
2022-12-13T10:52:30.943Z,5.06
2022-12-13T10:55:04.579Z,4.94
2022-12-13T10:57:53.703Z,4.98
2022-12-13T11:00:35.105Z,4.93
2022-12-13T11:03:06.576Z,5.00
2022-12-13T11:05:37.491Z,4.83
2022-12-13T11:08:14.328Z,4.74
2022-12-13T11:10:44.178Z,4.74
2022-12-13T11:13:24.105Z,4.74
2022-12-13T11:15:57.958Z,4.59
2022-12-13T11:18:34.075Z,4.64
2022-12-13T11:21:04.519Z,4.78
2022-12-13T11:23:43.634Z,4.96
2022-12-13T11:26:24.234Z,4.90
2022-12-13T11:29:02.342Z,4.92
2022-12-13T11:31:37.743Z,4.93
2022-12-13T11:34:13.493Z,4.82
2022-12-13T11:36:46.529Z,4.90
2022-12-13T11:39:20.798Z,4.95
2022-12-13T11:41:55.463Z,4.93
2022-12-13T11:44:29.597Z,4.87
2022-12-13T11:47:00.935Z,5.03
2022-12-13T11:49:37.451Z,4.84
2022-12-13T11:52:12.642Z,4.72
2022-12-13T11:54:48.993Z,4.80
2022-12-13T11:57:24.386Z,4.82
2022-12-13T12:00:02.362Z,4.81
2022-12-13T12:02:34.949Z,4.86
2022-12-13T12:05:08.154Z,4.94
2022-12-13T12:07:58.475Z,5.09
2022-12-13T12:10:32.717Z,5.12
2022-12-13T12:13:07.175Z,5.16
2022-12-13T12:15:42.497Z,4.81
2022-12-13T12:18:14.556Z,5.05
2022-12-13T12:20:58.758Z,5.01
2022-12-13T12:23:48.411Z,5.00
2022-12-13T12:26:24.971Z,5.09
2022-12-13T12:29:02.521Z,5.02
2022-12-13T12:31:34.324Z,5.17
2022-12-13T12:34:27.604Z,5.23
2022-12-13T12:37:07.707Z,5.16
2022-12-13T12:39:45.467Z,5.27
2022-12-13T12:42:25.348Z,5.27
2022-12-13T12:45:03.223Z,5.33
2022-12-13T12:48:08.625Z,5.32
2022-12-13T12:50:42.982Z,5.18
2022-12-13T12:53:24.132Z,5.29
2022-12-13T12:56:00.680Z,5.35
2022-12-13T12:58:34.908Z,5.26
2022-12-13T13:01:13.646Z,5.22
2022-12-13T13:03:44.610Z,5.19
2022-12-13T13:06:17.787Z,5.19
2022-12-13T13:08:55.308Z,5.15
2022-12-13T13:11:26.310Z,5.15
2022-12-13T13:14:06.555Z,5.05
2022-12-13T13:16:37.742Z,5.02
2022-12-13T13:19:25.736Z,5.00
2022-12-13T13:22:01.619Z,5.00
2022-12-13T13:24:34.785Z,5.04
2022-12-13T13:27:19.408Z,5.01
2022-12-13T13:29:49.041Z,4.98
2022-12-13T13:32:29.146Z,5.02
2022-12-13T13:35:17.989Z,4.86
2022-12-13T13:37:48.378Z,4.98
2022-12-13T13:40:31.443Z,5.02
2022-12-13T13:43:19.523Z,5.04
2022-12-13T13:46:00.077Z,5.04
2022-12-13T13:48:37.514Z,4.91
2022-12-13T13:51:28.271Z,4.95
2022-12-13T13:54:15.871Z,4.91
2022-12-13T13:57:10.266Z,4.94
2022-12-13T14:00:02.257Z,4.75
2022-12-13T14:02:45.963Z,4.80
2022-12-13T14:05:29.407Z,4.80
2022-12-13T14:08:20.101Z,4.82
2022-12-13T14:11:01.316Z,4.85
2022-12-13T14:13:56.603Z,4.81
2022-12-13T14:16:42.301Z,4.66
2022-12-13T14:19:26.778Z,4.66
2022-12-13T14:22:02.697Z,4.77
2022-12-13T14:24:39.727Z,4.78
2022-12-13T14:27:22.532Z,4.79
2022-12-13T14:29:58.137Z,4.78
2022-12-13T14:32:30.041Z,4.67
2022-12-13T14:35:24.982Z,4.54
2022-12-13T14:37:57.738Z,4.31
2022-12-13T14:40:29.325Z,4.42
2022-12-13T14:42:58.989Z,4.54
2022-12-13T14:45:30.515Z,4.55
2022-12-13T14:48:01.121Z,4.58
2022-12-13T14:50:34.232Z,4.52
2022-12-13T14:53:04.215Z,4.49
2022-12-13T14:55:36.269Z,4.54
2022-12-13T14:58:16.962Z,4.54
2022-12-13T15:00:46.893Z,4.43
2022-12-13T15:03:22.366Z,4.34
2022-12-13T15:05:56.029Z,4.28
2022-12-13T15:08:26.086Z,4.29
2022-12-13T15:10:56.996Z,4.38
2022-12-13T15:13:29.976Z,4.37
2022-12-13T15:16:10.263Z,4.38
2022-12-13T15:18:40.834Z,4.38
2022-12-13T15:21:22.068Z,4.38
2022-12-13T15:23:52.736Z,4.39
2022-12-13T15:26:29.002Z,4.46
2022-12-13T15:29:00.646Z,4.47
2022-12-13T15:31:32.891Z,4.36
2022-12-13T15:34:29.024Z,4.34
2022-12-13T15:37:01.956Z,4.38
2022-12-13T15:39:32.189Z,4.21
2022-12-13T15:42:01.934Z,4.16
2022-12-13T15:44:33.621Z,4.06
2022-12-13T15:47:05.166Z,3.93
2022-12-13T15:49:37.810Z,3.89
2022-12-13T15:52:24.881Z,3.78
2022-12-13T15:54:56.591Z,3.40
2022-12-13T15:57:27.383Z,3.54
2022-12-13T16:00:05.343Z,3.62
2022-12-13T16:02:35.542Z,3.56
2022-12-13T16:05:09.207Z,3.72
2022-12-13T16:07:40.776Z,3.69
2022-12-13T16:10:18.740Z,3.65
2022-12-13T16:12:50.484Z,3.62
2022-12-13T16:15:29.392Z,3.65
2022-12-13T16:18:07.724Z,3.77
2022-12-13T16:20:37.566Z,3.80
2022-12-13T16:23:08.951Z,3.83
2022-12-13T16:25:38.834Z,3.81
2022-12-13T16:28:08.460Z,3.69
2022-12-13T16:30:55.455Z,3.68
2022-12-13T16:33:29.648Z,3.56
2022-12-13T16:35:59.343Z,3.47
2022-12-13T16:38:30.308Z,3.61
2022-12-13T16:41:09.155Z,3.47
2022-12-13T16:43:41.004Z,3.33
2022-12-13T16:47:12.886Z,3.39
2022-12-13T16:49:03.123Z,3.31
2022-12-13T16:51:32.678Z,3.29
2022-12-13T16:54:03.606Z,2.97
2022-12-13T16:56:33.445Z,3.30
2022-12-13T16:59:03.097Z,3.16
2022-12-13T17:01:33.169Z,3.26
2022-12-13T17:04:09.148Z,3.26
2022-12-13T17:06:41.858Z,3.15
2022-12-13T17:09:12.847Z,3.24
2022-12-13T17:11:43.196Z,3.36
2022-12-13T17:14:13.055Z,3.08
2022-12-13T17:16:43.345Z,3.03
2022-12-13T17:19:15.532Z,2.99
2022-12-13T17:21:45.224Z,2.85
2022-12-13T17:24:16.340Z,2.89
2022-12-13T17:26:57.351Z,2.92
2022-12-13T17:29:27.463Z,2.76
2022-12-13T17:31:57.226Z,2.73
2022-12-13T17:34:27.188Z,2.79
2022-12-13T17:36:56.686Z,2.66
2022-12-13T17:39:27.831Z,2.42
2022-12-13T17:41:57.502Z,2.50
2022-12-13T17:44:27.721Z,2.41
2022-12-13T17:46:57.263Z,2.18
2022-12-13T17:49:27.159Z,2.39
2022-12-13T17:51:56.838Z,2.30
2022-12-13T17:54:29.507Z,2.20
2022-12-13T17:56:59.059Z,2.03
2022-12-13T17:59:28.980Z,2.17
2022-12-13T18:01:58.848Z,2.21
2022-12-13T18:04:28.466Z,2.24
2022-12-13T18:06:58.096Z,2.23
2022-12-13T18:09:29.133Z,2.20
2022-12-13T18:11:59.338Z,2.09
2022-12-13T18:14:29.535Z,1.90
2022-12-13T18:16:59.756Z,1.88
2022-12-13T18:19:31.971Z,1.98
2022-12-13T18:22:02.112Z,1.81
2022-12-13T18:24:33.156Z,1.98
2022-12-13T18:27:02.690Z,1.95
2022-12-13T18:29:32.361Z,1.89
2022-12-13T18:32:01.948Z,1.94
2022-12-13T18:34:31.558Z,1.88
2022-12-13T18:37:02.047Z,1.83
2022-12-13T18:39:34.728Z,1.70
2022-12-13T18:42:04.535Z,1.96
2022-12-13T18:44:34.148Z,1.76
2022-12-13T18:47:04.804Z,1.68
2022-12-13T18:49:34.362Z,1.73
2022-12-13T18:52:04.079Z,1.77
2022-12-13T18:54:35.451Z,1.71
2022-12-13T18:57:05.208Z,1.72
2022-12-13T18:59:34.755Z,1.64
2022-12-13T19:02:04.530Z,1.49
2022-12-13T19:04:35.872Z,1.54
2022-12-13T19:07:05.620Z,1.73
2022-12-13T19:09:36.555Z,1.82
2022-12-13T19:12:07.084Z,1.98
2022-12-13T19:14:38.451Z,1.74
2022-12-13T19:17:08.621Z,1.85
2022-12-13T19:19:38.398Z,1.67
2022-12-13T19:22:08.919Z,1.58
2022-12-13T19:24:39.873Z,1.65
2022-12-13T19:27:09.676Z,1.59
2022-12-13T19:29:39.279Z,1.52
2022-12-13T19:32:09.209Z,1.50
2022-12-13T19:34:39.649Z,1.60
2022-12-13T19:37:09.394Z,1.55
2022-12-13T19:39:40.291Z,1.64
2022-12-13T19:42:10.876Z,1.53
2022-12-13T19:44:40.445Z,1.46
2022-12-13T19:47:11.111Z,1.52
2022-12-13T19:49:40.750Z,1.43
2022-12-13T19:52:12.705Z,1.42
2022-12-13T19:54:43.837Z,1.27
2022-12-13T19:57:13.662Z,1.10
2022-12-13T19:59:43.352Z,1.28
2022-12-13T20:02:13.778Z,1.46
2022-12-13T20:04:44.779Z,1.37
2022-12-13T20:07:14.403Z,1.39
2022-12-13T20:09:45.398Z,1.20
2022-12-13T20:12:15.791Z,1.18
2022-12-13T20:14:45.803Z,1.11
2022-12-13T20:17:15.853Z,1.15
2022-12-13T20:19:45.376Z,1.42
2022-12-13T20:22:15.658Z,1.48
2022-12-13T20:24:46.641Z,1.16
2022-12-13T20:27:18.833Z,1.41
2022-12-13T20:29:48.701Z,1.58
2022-12-13T20:32:18.336Z,1.64
2022-12-13T20:34:54.379Z,1.78
2022-12-13T20:37:24.523Z,1.66
2022-12-13T20:39:55.629Z,1.34
2022-12-13T20:42:25.213Z,1.18
2022-12-13T20:44:54.708Z,1.25
2022-12-13T20:47:24.564Z,1.30
2022-12-13T20:49:54.308Z,1.46
2022-12-13T20:52:24.549Z,1.38
2022-12-13T20:54:55.631Z,1.44
2022-12-13T20:57:25.402Z,1.34
2022-12-13T20:59:54.948Z,1.41
2022-12-13T21:02:24.525Z,1.35
2022-12-13T21:04:54.096Z,1.39
2022-12-13T21:07:44.420Z,1.48
2022-12-13T21:10:19.368Z,1.56
2022-12-13T21:12:49.380Z,1.51
2022-12-13T21:15:19.479Z,1.46
2022-12-13T21:17:48.981Z,1.51
2022-12-13T21:20:18.607Z,1.15
2022-12-13T21:22:48.155Z,1.26
2022-12-13T21:25:19.095Z,1.33
2022-12-13T21:27:48.849Z,1.17
2022-12-13T21:30:18.473Z,1.09
2022-12-13T21:32:51.419Z,1.19
2022-12-13T21:35:22.475Z,1.17
2022-12-13T21:37:52.041Z,1.26
2022-12-13T21:40:24.227Z,1.20
2022-12-13T21:42:53.681Z,0.92
2022-12-13T21:45:23.356Z,1.24
2022-12-13T21:47:52.934Z,1.12
2022-12-13T21:50:22.502Z,1.15
2022-12-13T21:52:52.059Z,1.24
2022-12-13T21:55:38.984Z,1.16
2022-12-13T21:58:27.647Z,1.15
2022-12-13T22:00:57.652Z,1.09
2022-12-13T22:03:27.447Z,1.27
2022-12-13T22:05:57.324Z,1.28
2022-12-13T22:08:27.559Z,1.20
2022-12-13T22:11:20.864Z,1.25
2022-12-13T22:13:51.270Z,1.07
2022-12-13T22:16:21.437Z,1.29
2022-12-13T22:18:51.132Z,1.17
2022-12-13T22:21:20.859Z,1.13
2022-12-13T22:23:53.757Z,1.06
2022-12-13T22:26:25.636Z,0.99
2022-12-13T22:28:58.378Z,1.23
2022-12-13T22:31:29.963Z,1.23
2022-12-13T22:33:59.859Z,0.68
2022-12-13T22:36:29.585Z,0.74
2022-12-13T22:38:59.350Z,0.88
2022-12-13T22:41:30.451Z,1.08
2022-12-13T22:44:00.849Z,0.89
2022-12-13T22:46:30.381Z,0.96
2022-12-13T22:49:00.173Z,0.92
2022-12-13T22:51:29.828Z,1.07
2022-12-13T22:53:59.775Z,1.19
2022-12-13T22:56:30.723Z,1.20
2022-12-13T22:59:01.838Z,0.99
2022-12-13T23:01:32.627Z,0.56
2022-12-13T23:04:03.276Z,0.68
2022-12-13T23:06:33.886Z,0.86
2022-12-13T23:09:05.746Z,0.89
2022-12-13T23:11:54.432Z,0.73
2022-12-13T23:14:27.224Z,0.76
2022-12-13T23:16:57.446Z,0.94
2022-12-13T23:19:50.009Z,0.60
2022-12-13T23:22:16.902Z,0.79
2022-12-13T23:24:46.443Z,0.73
2022-12-13T23:27:17.409Z,0.48
2022-12-13T23:29:46.914Z,0.78
2022-12-13T23:32:16.581Z,0.62
2022-12-13T23:34:46.332Z,0.58
2022-12-13T23:37:15.897Z,0.77
2022-12-13T23:39:45.392Z,0.79
2022-12-13T23:42:15.013Z,0.58
2022-12-13T23:44:45.932Z,0.66
2022-12-13T23:47:15.464Z,0.65
2022-12-13T23:49:44.995Z,0.61
2022-12-13T23:52:17.929Z,0.63
2022-12-13T23:54:47.431Z,0.54
2022-12-13T23:57:17.006Z,0.38
2022-12-13T23:59:47.854Z,0.61
